Tiempo atmosférico en la estación meteorológica de Candeleda, Ávila (350 m.)



Fecha
DESCASC
Temp. máxima en grados centígrados (hora)
DESCASC
Temp. mínima en grados centígrados (hora)
DESCASC
Temp. media en grados centígrados
DESCASC
Racha de viento máxima en m/sg (hora)
DESCASC
Velocidad máxima media en intervalos de 10 minutos(hora)
DESCASC
Precipitaciones diarias en mm
DESCASC
Precipitaciones de 00:00 a 06:00 en mm
DESCASC
Precipitaciones de 06:00 a 12:00 en mm
DESCASC
Precipitaciones de 12:00 a 18:00 en mm
DESCASC
Precipitaciones de 18:00 a 24:00 en mm
DESCASC
04-03-2021 17.4 (15:10) 7.1 (06:10) 12.2 9.44 (11:20) 6.11 (13:10) 0 0 0 0 0
03-03-2021 18.8 (14:50) 6 (06:40) 12.4 8.06 (13:00) 4.17 (12:30) 0 0 0 0 0
02-03-2021 17 (16:40) 9.1 (23:20) 13.1 10.28 (14:40) 6.67 (13:40) 0 0 0 0 0
01-03-2021 12.8 (00:00) 9.5 (07:00) 11.2 12.22 (10:00) 8.06 (02:40) 0 0 0 0 0
28-02-2021 17.8 (16:30) 4.7 (00:00) 11.2 9.44 (23:59) 6.39 (23:59) 0 0 0 0 0
27-02-2021 22.7 (16:10) 5.6 (00:00) 14.2 4.17 (16:10) 2.5 (17:00) 0 0 0 0 0
26-02-2021 19.1 (16:40) 10 (00:00) 14.6 14.72 (04:40) 7.78 (04:40) 0 0 0 0 0
25-02-2021 15.7 (15:40) 7.9 (00:00) 11.8 5.83 (00:10) 3.61 (00:10) 0 0 0 0 0
24-02-2021 17.8 (17:10) 4.4 (00:00) 11.1 11.39 (11:40) 6.67 (11:50) 0 0 0 0 0
23-02-2021 17.2 (16:40) 0.3 (00:00) 8.8 7.22 (11:40) 4.72 (12:40) 0 0 0 0 0
22-02-2021 16 (16:30) 2.6 (00:00) 9.3 6.11 (17:40) 3.06 (00:50) 0 0 0 0 0
21-02-2021 16.2 (02:00) 7 (00:00) 11.6 8.89 (10:20) 5.83 (05:00) 18 0 2.6 13.2 2.2
20-02-2021 18.8 (15:50) 4.8 (00:00) 11.8 5 (22:50) 3.06 (15:10) 0 0 0 0 0
19-02-2021 21 (15:40) 4.2 (00:00) 12.6 6.39 (17:50) 4.17 (17:50) 0 0 0 0 0
18-02-2021 17.5 (16:00) 4.2 (00:00) 10.8 7.5 (15:40) 4.72 (15:30) 0 0 0 0 0
17-02-2021 19.4 (15:30) 5.2 (00:00) 12.3 3.89 (14:00) 1.67 (14:30) 0 0 0 0 0
16-02-2021 17.6 (15:50) 4.5 (00:00) 11.1 5.83 (16:30) 3.89 (16:40) 0 0 0 0 0
15-02-2021 19 (16:20) 5.8 (00:00) 12.4 7.22 (10:40) 4.72 (10:40) 0 0 0 0 0
14-02-2021 20.8 (16:00) 3.9 (00:00) 12.3 5 (17:30) 3.06 (17:00) 0 0 0 0 0
13-02-2021 19.6 (17:10) 3.8 (00:00) 11.7 3.89 (13:50) 2.22 (15:10) 0 0 0 0 0
12-02-2021 18.5 (16:30) 7.6 (00:00) 13 12.78 (14:40) 7.78 (15:10) 7.8 7.8 0 0 0
11-02-2021 13.5 (14:50) 9.1 (00:00) 11.3 6.11 (13:10) 3.61 (13:30) 3.8 0.2 2.8 0.6 0.2
10-02-2021 16.7 (16:00) 8.6 (00:00) 12.7 16.67 (04:50) 8.61 (09:00) 8.6 8.4 0.2 0 0
09-02-2021 11.7 (16:10) 7.7 (00:00) 9.7 14.17 (13:50) 8.06 (14:20) 56.8 7.8 26.2 20.4 2.4
08-02-2021 13.9 (15:40) 6.7 (00:00) 10.3 15.56 (20:20) 11.39 (20:30) 25.6 25.6 0 0 0
07-02-2021 11.8 (14:10) 6.9 (00:00) 9.4 10 (16:40) 6.67 (16:40) 4.2 0 0 0.2 4
06-02-2021 13.3 (17:30) 8 (00:00) 10.7 4.72 (13:00) 2.78 (11:50) 22.6 12 2.8 7.4 0.4
05-02-2021 14.7 (13:50) 9.7 (00:00) 12.2 6.94 (20:20) 3.89 (20:20) 5.2 1.2 0.4 0 3.6
04-02-2021 13.3 (15:40) 9.7 (00:00) 11.5 6.11 (12:40) 3.89 (10:20) 3.2 0.8 0 1.6 0.8

Gráficas

Temp. máximas Temp. mínimas Temp. medias Precipitaciones Rachas de viento máximas Velocidades máximas media en intervalos de 10 minutos

Datos horarios

Fecha y hora oficial Temperatura (ºC) Velocidad del viento (km/h) Dirección del viento Racha (km/h) Dirección de racha Precipitación (mm) Presión (hPa) Tendencia (hPa) Humedad (%)
2021-03-05 23:00:00 9.1 3 Este 7 Norte 0 -- -- 81
2021-03-05 22:00:00 11.5 5 Norte 9 Norte 0 -- -- 72
2021-03-05 21:00:00 12.4 6 Norte 10 Nordeste 0 -- -- 67
2021-03-05 20:00:00 12.7 3 Norte 6 Norte 0 -- -- 65
2021-03-05 19:00:00 14.5 0 Calma 10 Este 0 -- -- 60
2021-03-05 18:00:00 16.2 8 Este 21 Este 0 -- -- 59
2021-03-05 17:00:00 17 12 Este 22 Nordeste 0 -- -- 54
2021-03-05 16:00:00 16.8 12 Este 25 Este 0 -- -- 56
2021-03-05 15:00:00 17 14 Este 34 Este 0 -- -- 53
2021-03-05 14:00:00 16.6 9 Este 23 Sudeste 0 -- -- 56
2021-03-05 13:00:00 15.4 17 Este 29 Este 0 -- -- 58
2021-03-05 12:00:00 14.6 20 Este 33 Este 0 -- -- 60
2021-03-05 11:00:00 13.6 21 Este 37 Este 0 -- -- 62
2021-03-05 10:00:00 11.8 14 Nordeste 27 Nordeste 0 -- -- 68
2021-03-05 09:00:00 11 13 Nordeste 23 Este 0 -- -- 71
2021-03-05 08:00:00 11 9 Este 22 Este 0 -- -- 69
2021-03-05 07:00:00 11.3 12 Nordeste 23 Nordeste 0 -- -- 65
2021-03-05 06:00:00 11.3 16 Este 24 Este 0 -- -- 66
2021-03-05 05:00:00 11.2 15 Nordeste 27 Nordeste 0 -- -- 69
2021-03-05 04:00:00 10.7 10 Este 19 Nordeste 0 -- -- 72
2021-03-05 03:00:00 11.1 9 Este 21 Este 0 -- -- 73
2021-03-05 02:00:00 13.6 16 Este 25 Nordeste 0 -- -- 61
2021-03-05 01:00:00 10 0 Calma 7 Este 0 -- -- 75
2021-03-05 00:00:00 9.9 4 Este 9 Este 0 -- -- 73
2021-03-04 23:00:00 11.1 5 Este 9 Este 0 -- -- 66
2021-03-04 22:00:00 11.7 0 Calma 6 Norte 0 -- -- 66
2021-03-04 21:00:00 12.1 0 Calma 6 Norte 0 -- -- 70
2021-03-04 20:00:00 11.8 3 Nordeste 13 Este 0 -- -- 74
2021-03-04 19:00:00 14.3 10 Este 15 Nordeste 0 -- -- 64
2021-03-04 18:00:00 15.5 8 Este 17 Este 0 -- -- 59
2021-03-04 17:00:00 16 8 Este 24 Este 0 -- -- 55
2021-03-04 16:00:00 16.9 17 Este 33 Este 0 -- -- 49
2021-03-04 15:00:00 17 19 Este 31 Este 0 -- -- 52
2021-03-04 14:00:00 16.5 19 Este 30 Este 0 -- -- 53
2021-03-04 13:00:00 15.6 21 Este 32 Este 0 -- -- 62
2021-03-04 12:00:00 14.3 22 Nordeste 34 Este 0 -- -- 66
2021-03-04 11:00:00 13.1 22 Este 32 Este 0 -- -- 70
2021-03-04 10:00:00 12.5 15 Este 33 Nordeste 0 -- -- 73
2021-03-04 09:00:00 10.8 10 Nordeste 18 Nordeste 0 -- -- 77
2021-03-04 08:00:00 10 11 Este 28 Nordeste 0 -- -- 80
2021-03-04 07:00:00 9.2 6 Nordeste 21 Nordeste 0 -- -- 88
2021-03-04 06:00:00 7.8 3 Noroeste 5 Nordeste 0 -- -- 86
2021-03-04 05:00:00 8.3 4 Nordeste 6 Este 0 -- -- 89
2021-03-04 04:00:00 7.5 5 Nordeste 7 Este 0 -- -- 89
2021-03-04 03:00:00 7.7 3 Este 12 Este 0 -- -- 91
2021-03-04 02:00:00 8.1 3 Este 6 Este 0 -- -- 91
2021-03-04 01:00:00 8.6 4 Nordeste 9 Este 0 -- -- 91
2021-03-04 00:00:00 9.2 2 Este 5 Sudoeste 0 -- -- 89
2021-03-03 23:00:00 10 3 Nordeste 8 Norte 0 -- -- 89
2021-03-03 22:00:00 11.2 5 Norte 7 Norte 0 -- -- 83
2021-03-03 21:00:00 11.6 3 Noroeste 6 Nordeste 0 -- -- 82
2021-03-03 20:00:00 12.3 3 Nordeste 4 Este 0 -- -- 81
2021-03-03 19:00:00 15.2 0 Calma 9 Sudeste 0 -- -- 70
2021-03-03 18:00:00 17.5 6 Sudeste 14 Sudeste 0 -- -- 63
2021-03-03 17:00:00 17.9 11 Este 17 Este 0 -- -- 61
2021-03-03 16:00:00 18.2 11 Sudeste 20 Este 0 -- -- 60
2021-03-03 15:00:00 17.9 13 Este 20 Este 0 -- -- 63
2021-03-03 14:00:00 17.4 10 Este 22 Este 0 -- -- 60
2021-03-03 13:00:00 16.4 14 Este 29 Este 0 -- -- 62
2021-03-03 12:00:00 15.4 10 Este 23 Este 0 -- -- 67
2021-03-03 11:00:00 13.8 10 Este 21 Este 0 -- -- 74
2021-03-03 10:00:00 11.9 4 Nordeste 7 Nordeste 0 -- -- 75
2021-03-03 09:00:00 7.9 4 Nordeste 8 Nordeste 0 -- -- 88
2021-03-03 08:00:00 7 3 Noroeste 6 Noroeste 0 -- -- 88
2021-03-03 07:00:00 6 3 Nordeste 6 Oeste 0 -- -- 91
2021-03-03 06:00:00 8.1 3 Oeste 6 Sudeste 0 -- -- 88
2021-03-03 05:00:00 7.3 3 Norte 5 Noroeste 0 -- -- 85
2021-03-03 04:00:00 7.6 0 Calma 4 Sudeste 0 -- -- 86
2021-03-03 03:00:00 8.5 0 Calma 6 Sudeste 0 -- -- 83
2021-03-03 02:00:00 8.2 2 Nordeste 4 Norte 0 -- -- 84
2021-03-03 01:00:00 8.3 2 Nordeste 4 Norte 0 -- -- 86
2021-03-03 00:00:00 9.4 0 Calma 3 Este 0 -- -- 80
2021-03-02 23:00:00 10.2 0 Calma 12 Nordeste 0 -- -- 77
2021-03-02 22:00:00 11.2 7 Nordeste 13 Nordeste 0 -- -- 74
2021-03-02 21:00:00 11.2 2 Nordeste 5 Norte 0 -- -- 74
2021-03-02 20:00:00 13 3 Nordeste 14 Nordeste 0 -- -- 65
2021-03-02 19:00:00 14.3 8 Nordeste 16 Este 0 -- -- 64
2021-03-02 18:00:00 16.3 11 Este 18 Este 0 -- -- 59
2021-03-02 17:00:00 16.5 10 Este 19 Este 0 -- -- 56
2021-03-02 16:00:00 15.3 13 Este 27 Este 0 -- -- 62
2021-03-02 15:00:00 14.9 21 Este 37 Nordeste 0 -- -- 63
2021-03-02 14:00:00 14.7 16 Este 36 Este 0 -- -- 65
2021-03-02 13:00:00 13.8 20 Este 34 Este 0 -- -- 68
2021-03-02 12:00:00 13.5 20 Este 32 Este 0 -- -- 68
2021-03-02 11:00:00 12.4 4 Norte 10 Noroeste 0 -- -- 75
2021-03-02 10:00:00 11.4 3 Noroeste 10 Este 0 -- -- 79
2021-03-02 09:00:00 10.8 6 Noroeste 17 Este 0 -- -- 79
2021-03-02 08:00:00 10.8 5 Este 18 Nordeste 0 -- -- 77
2021-03-02 07:00:00 10.6 3 Nordeste 17 Nordeste 0 -- -- 79
2021-03-02 06:00:00 10.5 4 Nordeste 13 Este 0 -- -- 80
2021-03-02 05:00:00 10.5 3 Nordeste 19 Este 0 -- -- 79
2021-03-02 04:00:00 10.9 14 Este 23 Este 0 -- -- 77
2021-03-02 03:00:00 11 9 Nordeste 21 Este 0 -- -- 76
2021-03-02 02:00:00 11.3 16 Nordeste 28 Este 0 -- -- 74
2021-03-02 01:00:00 11.7 17 Este 27 Este 0 -- -- 73
2021-03-02 00:00:00 11.6 12 Nordeste 26 Este 0 -- -- 75
2021-03-01 23:00:00 11.8 13 Este 21 Este 0 -- -- 76
2021-03-01 22:00:00 12.2 11 Este 22 Este 0 -- -- 74
2021-03-01 21:00:00 12.2 9 Este 16 Nordeste 0 -- -- 74
2021-03-01 20:00:00 12.4 6 Este 15 Nordeste 0 -- -- 72
2021-03-01 19:00:00 12.6 5 Norte 14 Nordeste 0 -- -- 72
2021-03-01 18:00:00 12.8 3 Sudeste 10 Noroeste 0 -- -- 71
2021-03-01 17:00:00 12.4 4 Nordeste 21 Este 0 -- -- 72
2021-03-01 16:00:00 12.4 14 Este 28 Nordeste 0 -- -- 71
2021-03-01 15:00:00 12.5 13 Nordeste 29 Nordeste 0 -- -- 70
2021-03-01 14:00:00 12.3 17 Este 39 Este 0 -- -- 70
2021-03-01 13:00:00 12.3 26 Este 43 Nordeste 0 -- -- 68
2021-03-01 12:00:00 12.6 23 Este 38 Este 0 -- -- 66
2021-03-01 11:00:00 11.6 27 Nordeste 44 Nordeste 0 -- -- 69
2021-03-01 10:00:00 11.5 28 Este 44 Este 0 -- -- 69
2021-03-01 09:00:00 10.2 17 Este 35 Este 0 -- -- 72
2021-03-01 08:00:00 10 19 Este 32 Este 0 -- -- 73
2021-03-01 07:00:00 9.5 8 Nordeste 25 Nordeste 0 -- -- 80
2021-03-01 06:00:00 9.8 14 Nordeste 39 Este 0 -- -- 75
2021-03-01 05:00:00 10.6 21 Este 36 Este 0 -- -- 68
2021-03-01 04:00:00 11 20 Nordeste 39 Nordeste 0 -- -- 67
2021-03-01 03:00:00 11.3 24 Este 43 Este 0 -- -- 66
2021-03-01 02:00:00 11.7 26 Este 41 Este 0 -- -- 68
2021-03-01 01:00:00 12.4 24 Este 43 Este 0 -- -- 64
2021-03-01 00:00:00 12.8 23 Este 34 Este 0 -- -- 61
2021-02-28 23:00:00 12.8 14 Este 26 Nordeste 0 -- -- 62
2021-02-28 22:00:00 13.2 17 Nordeste 25 Nordeste 0 -- -- 62
2021-02-28 21:00:00 11.7 0 Calma 9 Noroeste 0 -- -- 64
2021-02-28 20:00:00 11.8 4 Norte 7 Noroeste 0 -- -- 64
2021-02-28 19:00:00 14.5 4 Nordeste 12 Este 0 -- -- 55
2021-02-28 18:00:00 16.9 8 Este 16 Este 0 -- -- 50
2021-02-28 17:00:00 17.5 6 Este 19 Este 0 -- -- 48
2021-02-28 16:00:00 16.9 11 Este 21 Este 0 -- -- 50
2021-02-28 15:00:00 15.8 13 Este 23 Este 0 -- -- 51
2021-02-28 14:00:00 15.1 13 Este 24 Este 0 -- -- 55
2021-02-28 13:00:00 14.1 15 Este 28 Este 0 -- -- 59
2021-02-28 12:00:00 13.1 17 Este 28 Este 0 -- -- 60
2021-02-28 11:00:00 12 21 Este 31 Este 0 -- -- 64
2021-02-28 10:00:00 11.3 12 Este 23 Este 0 -- -- 67
2021-02-28 09:00:00 9.3 11 Este 25 Este 0 -- -- 70
2021-02-28 08:00:00 6.1 5 Oeste 8 Noroeste 0 -- -- 83
2021-02-28 07:00:00 5 3 Noroeste 10 Oeste 0 -- -- 88
2021-02-28 06:00:00 6.3 6 Noroeste 10 Oeste 0 -- -- 85
2021-02-28 05:00:00 4.9 4 Sudoeste 9 Sudoeste 0 -- -- 90
2021-02-28 04:00:00 6.2 6 Este 10 Este 0 -- -- 83
2021-02-28 03:00:00 6.7 7 Nordeste 9 Nordeste 0 -- -- 84
2021-02-28 02:00:00 6.7 4 Este 5 Este 0 -- -- 81
2021-02-28 01:00:00 6.9 3 Nordeste 6 Este 0 -- -- 81
2021-02-28 00:00:00 8.4 4 Nordeste 6 Este 0 -- -- 76
2021-02-27 23:00:00 9.7 3 Este 9 Norte 0 -- -- 72
2021-02-27 22:00:00 12.3 5 Norte 11 Norte 0 -- -- 62
2021-02-27 21:00:00 13.2 7 Norte 12 Norte 0 -- -- 58
2021-02-27 20:00:00 13.8 6 Norte 9 Norte 0 -- -- 58
2021-02-27 19:00:00 17.5 0 Calma 8 Sudeste 0 -- -- 41
2021-02-27 18:00:00 21.3 4 Sudeste 14 Sudeste 0 -- -- 37
2021-02-27 17:00:00 22.1 9 Sudeste 15 Este 0 -- -- 36
2021-02-27 16:00:00 22.6 4 Sudeste 13 Sudeste 0 -- -- 35
2021-02-27 15:00:00 20.8 4 Sur 14 Sudoeste 0 -- -- 44
2021-02-27 14:00:00 19.4 5 Sur 13 Sudeste 0 -- -- 50
2021-02-27 13:00:00 17.6 7 Este 12 Este 0 -- -- 54
2021-02-27 12:00:00 16.3 3 Sudeste 8 Sudeste 0 -- -- 51
2021-02-27 11:00:00 14.1 3 Este 7 Oeste 0 -- -- 62
2021-02-27 10:00:00 10.8 5 Oeste 6 Oeste 0 -- -- 72
2021-02-27 09:00:00 7.5 0 Calma 3 Este 0 -- -- 83
2021-02-27 08:00:00 6.7 2 Norte 5 Nordeste 0 -- -- 83
2021-02-27 07:00:00 6.5 3 Nordeste 9 Este 0 -- -- 84
2021-02-27 06:00:00 7.8 3 Oeste 6 Norte 0 -- -- 77
2021-02-27 05:00:00 5.8 3 Sur 6 Norte 0 -- -- 90
2021-02-27 04:00:00 6.8 0 Calma 5 Este 0 -- -- 87
2021-02-27 03:00:00 7.5 2 Nordeste 6 Este 0 -- -- 87
2021-02-27 02:00:00 8 3 Nordeste 9 Noroeste 0 -- -- 80
2021-02-27 01:00:00 8.6 2 Sur 5 Sudeste 0 -- -- 83
2021-02-27 00:00:00 10 3 Este 9 Este 0 -- -- 80
2021-02-26 23:00:00 11.5 4 Norte 9 Norte 0 -- -- 74
2021-02-26 22:00:00 11.9 6 Norte 9 Norte 0 -- -- 75
2021-02-26 21:00:00 12.1 4 Norte 8 Norte 0 -- -- 75
2021-02-26 20:00:00 12.7 6 Noroeste 7 Norte 0 -- -- 75
2021-02-26 19:00:00 14.8 0 Calma 4 Sudeste 0 -- -- 67
2021-02-26 18:00:00 17.1 4 Sudeste 13 Sudeste 0 -- -- 59
2021-02-26 17:00:00 18.4 10 Sudeste 22 Este 0 -- -- 55
2021-02-26 16:00:00 18.7 13 Este 23 Este 0 -- -- 52
2021-02-26 15:00:00 18.1 15 Nordeste 24 Este 0 -- -- 53
2021-02-26 14:00:00 16.9 10 Este 21 Este 0 -- -- 59
2021-02-26 13:00:00 15.8 16 Este 23 Este 0 -- -- 60
2021-02-26 12:00:00 14.5 16 Este 32 Este 0 -- -- 66
2021-02-26 11:00:00 13.9 19 Este 32 Este 0 -- -- 66
2021-02-26 10:00:00 13.3 6 Este 15 Este 0 -- -- 68
2021-02-26 09:00:00 10.8 4 Este 18 Este 0 -- -- 75
2021-02-26 08:00:00 11 9 Nordeste 22 Este 0 -- -- 74
2021-02-26 07:00:00 11.6 16 Este 33 Este 0 -- -- 73
2021-02-26 06:00:00 12.4 22 Este 36 Este 0 -- -- 71
2021-02-26 05:00:00 12.8 26 Este 53 Este 0 -- -- 70
2021-02-26 04:00:00 13.2 26 Este 38 Este 0 -- -- 69
2021-02-26 03:00:00 14 22 Este 32 Nordeste 0 -- -- 63
2021-02-26 02:00:00 12.9 8 Nordeste 17 Nordeste 0 -- -- 67
2021-02-26 01:00:00 12.3 5 Sudeste 19 Este 0 -- -- 72
2021-02-26 00:00:00 11.6 3 Nordeste 8 Este 0 -- -- 76
2021-02-25 23:00:00 11 4 Oeste 8 Oeste 0 -- -- 78
2021-02-25 22:00:00 9.4 5 Nordeste 9 Norte 0 -- -- 84
2021-02-25 21:00:00 11.3 7 Noroeste 9 Noroeste 0 -- -- 76
2021-02-25 20:00:00 11 2 Sudeste 7 Sudeste 0 -- -- 77
2021-02-25 19:00:00 13 2 Nordeste 13 Este 0 -- -- 69
2021-02-25 18:00:00 14.2 8 Este 15 Este 0 -- -- 66
2021-02-25 17:00:00 15 6 Sudeste 13 Este 0 -- -- 62
2021-02-25 16:00:00 15.3 7 Sudeste 11 Este 0 -- -- 62
2021-02-25 15:00:00 14.7 5 Sudeste 16 Este 0 -- -- 64
2021-02-25 14:00:00 14.3 11 Este 18 Este 0 -- -- 62
2021-02-25 13:00:00 13.7 8 Este 15 Este 0 -- -- 66
2021-02-25 12:00:00 13.1 10 Este 17 Este 0 -- -- 68
2021-02-25 11:00:00 12 8 Este 19 Este 0 -- -- 71
2021-02-25 10:00:00 11.1 2 Noroeste 5 Noroeste 0 -- -- 77
2021-02-25 09:00:00 9.4 3 Sudeste 8 Sudeste 0 -- -- 82
2021-02-25 08:00:00 8.6 3 Nordeste 12 Nordeste 0 -- -- 82
2021-02-25 07:00:00 8.5 2 Norte 6 Norte 0 -- -- 82
2021-02-25 06:00:00 8.8 3 Norte 9 Este 0 -- -- 83
2021-02-25 05:00:00 8.2 3 Oeste 6 Noroeste 0 -- -- 82
2021-02-25 04:00:00 9.3 2 Este 9 Nordeste 0 -- -- 77
2021-02-25 03:00:00 8.8 6 Nordeste 15 Nordeste 0 -- -- 77
2021-02-25 02:00:00 11 4 Nordeste 18 Este 0 -- -- 71
2021-02-25 01:00:00 12 11 Este 21 Este 0 -- -- 67
2021-02-25 00:00:00 12.6 12 Este 21 Este 0 -- -- 66
2021-02-24 23:00:00 13.8 14 Este 30 Este 0 -- -- 63
2021-02-24 22:00:00 14.3 15 Este 24 Nordeste 0 -- -- 63
2021-02-24 21:00:00 12.4 4 Este 6 Este 0 -- -- 67
2021-02-24 20:00:00 12 0 Calma 5 Noroeste 0 -- -- 71
2021-02-24 19:00:00 15 4 Nordeste 16 Este 0 -- -- 62
2021-02-24 18:00:00 17.3 11 Este 19 Este 0 -- -- 56
2021-02-24 17:00:00 17.7 13 Este 25 Este 0 -- -- 53
2021-02-24 16:00:00 17.6 15 Este 23 Este 0 -- -- 53
2021-02-24 15:00:00 16.7 16 Este 27 Este 0 -- -- 54
2021-02-24 14:00:00 15.7 19 Este 31 Este 0 -- -- 57
2021-02-24 13:00:00 14.7 20 Este 32 Este 0 -- -- 62
2021-02-24 12:00:00 13.8 22 Este 41 Este 0 -- -- 65
2021-02-24 11:00:00 12.7 22 Este 31 Este 0 -- -- 66
2021-02-24 10:00:00 11.6 13 Este 22 Este 0 -- -- 70
2021-02-24 09:00:00 9.1 2 Este 8 Este 0 -- -- 77
2021-02-24 08:00:00 5 3 Este 5 Este 0 -- -- 88
2021-02-24 07:00:00 5.4 4 Noroeste 11 Noroeste 0 -- -- 89
2021-02-24 06:00:00 5 4 Oeste 10 Este 0 -- -- 90
2021-02-24 05:00:00 4.6 5 Este 9 Este 0 -- -- 91
2021-02-24 04:00:00 5.2 3 Este 8 Este 0 -- -- 87
2021-02-24 03:00:00 6 4 Este 8 Este 0 -- -- 83
2021-02-24 02:00:00 6.6 4 Este 14 Nordeste 0 -- -- 82
2021-02-24 01:00:00 8.3 6 Este 16 Nordeste 0 -- -- 75
2021-02-24 00:00:00 7.8 5 Este 13 Nordeste 0 -- -- 78
2021-02-23 23:00:00 11.3 7 Nordeste 14 Nordeste 0 -- -- 63
2021-02-23 22:00:00 11.6 9 Nordeste 19 Nordeste 0 -- -- 63
2021-02-23 21:00:00 12.8 6 Norte 15 Nordeste 0 -- -- 56
2021-02-23 20:00:00 11.9 6 Nordeste 12 Este 0 -- -- 57
2021-02-23 19:00:00 13.9 8 Este 18 Este 0 -- -- 53
2021-02-23 18:00:00 16.6 10 Este 19 Este 0 -- -- 45
2021-02-23 17:00:00 17 13 Este 20 Este 0 -- -- 43
2021-02-23 16:00:00 16.8 11 Este 25 Este 0 -- -- 43
2021-02-23 15:00:00 15.9 13 Este 25 Este 0 -- -- 51
2021-02-23 14:00:00 15.5 13 Este 24 Este 0 -- -- 49
2021-02-23 13:00:00 14.6 14 Este 26 Este 0 -- -- 55
2021-02-23 12:00:00 13.4 8 Sudeste 26 Este 0 -- -- 60
2021-02-23 11:00:00 11.5 3 Este 7 Este 0 -- -- 58
2021-02-23 10:00:00 7.3 2 Nordeste 8 Este 0 -- -- 73
2021-02-23 09:00:00 3.1 5 Este 8 Este 0 -- -- 85
2021-02-23 08:00:00 0.3 0 Calma 9 Oeste 0 -- -- 90
2021-02-23 07:00:00 0.6 4 Este 10 Nordeste 0 -- -- 91
2021-02-23 06:00:00 0.8 0 Calma 6 Este 0 -- -- 93
2021-02-23 05:00:00 0.9 5 Este 7 Este 0 -- -- 94
2021-02-23 04:00:00 1 0 Calma 10 Nordeste 0 -- -- 91
2021-02-23 03:00:00 1.7 4 Nordeste 5 Nordeste 0 -- -- 93
2021-02-23 02:00:00 2.7 0 Calma 5 Este 0 -- -- 89
2021-02-23 01:00:00 2.9 3 Nordeste 6 Este 0 -- -- 90
2021-02-23 00:00:00 3.9 4 Este 6 Este 0 -- -- 85
2021-02-22 23:00:00 4.8 5 Este 6 Este 0 -- -- 84
2021-02-22 22:00:00 6.2 3 Nordeste 7 Sudeste 0 -- -- 81
2021-02-22 21:00:00 6.5 2 Nordeste 9 Este 0 -- -- 78
2021-02-22 20:00:00 8.6 5 Norte 7 Norte 0 -- -- 70
2021-02-22 19:00:00 12.2 5 Sudoeste 14 Sur 0 -- -- 53
2021-02-22 18:00:00 14.9 10 Sudoeste 22 Sur 0 -- -- 46
2021-02-22 17:00:00 15.8 9 Sur 19 Sudoeste 0 -- -- 45
2021-02-22 16:00:00 15 10 Sudoeste 17 Sudoeste 0 -- -- 46
2021-02-22 15:00:00 14.4 6 Sur 18 Sur 0 -- -- 52
2021-02-22 14:00:00 13.4 6 Sur 16 Sudeste 0 -- -- 56
2021-02-22 13:00:00 12 4 Sur 10 Este 0 -- -- 57
2021-02-22 12:00:00 10.1 5 Este 10 Nordeste 0 -- -- 71
2021-02-22 11:00:00 8.6 5 Este 16 Este 0 -- -- 75
2021-02-22 10:00:00 7.1 5 Este 11 Este 0 -- -- 87
2021-02-22 09:00:00 3 4 Este 10 Este 0 -- -- 97
2021-02-22 08:00:00 2.8 6 Este 13 Nordeste 0 -- -- 96
2021-02-22 07:00:00 4.1 8 Nordeste 15 Este 0 -- -- 96
2021-02-22 06:00:00 4.8 8 Nordeste 12 Nordeste 0 -- -- 94
2021-02-22 05:00:00 6.5 6 Norte 17 Este 0 -- -- 87
2021-02-22 04:00:00 6.6 3 Norte 19 Este 0 -- -- 87
2021-02-22 03:00:00 7.1 9 Nordeste 16 Este 0 -- -- 90
2021-02-22 02:00:00 7.3 9 Este 20 Nordeste 0 -- -- 90
2021-02-22 01:00:00 6.9 4 Este 21 Nordeste 0 -- -- 93
2021-02-22 00:00:00 7 3 Nordeste 15 Este 0 -- -- 95
2021-02-21 23:00:00 7.5 8 Este 29 Sudoeste 0 -- -- 91
2021-02-21 22:00:00 7.7 14 Sudoeste 25 Oeste 0 -- -- 96
2021-02-21 21:00:00 7.9 13 Sudoeste 22 Sur 0 -- -- 100
2021-02-21 20:00:00 8.1 2 Sur 6 Sudeste 0.4 -- -- 100
2021-02-21 19:00:00 8 2 Este 8 Sur 1.8 -- -- 100
2021-02-21 18:00:00 8 5 Sur 15 Sudoeste 1.8 -- -- 100
2021-02-21 17:00:00 8.6 8 Sudoeste 14 Sur 1.6 -- -- 100
2021-02-21 16:00:00 9 6 Sudoeste 14 Sur 3.2 -- -- 99
2021-02-21 15:00:00 9.1 3 Oeste 22 Sudoeste 4 -- -- 99
2021-02-21 14:00:00 10.4 8 Este 18 Este 1 -- -- 94
2021-02-21 13:00:00 10.5 8 Nordeste 18 Este 1.6 -- -- 92
2021-02-21 12:00:00 9.8 15 Este 19 Nordeste 2.6 -- -- 90
2021-02-21 11:00:00 12.2 14 Nordeste 32 Nordeste 0 -- -- 71
2021-02-21 10:00:00 12.4 20 Este 30 Nordeste 0 -- -- 65
2021-02-21 09:00:00 12.7 16 Este 25 Nordeste 0 -- -- 63
2021-02-21 08:00:00 13 14 Este 30 Este 0 -- -- 60
2021-02-21 07:00:00 13.3 13 Este 29 Este 0 -- -- 58
2021-02-21 06:00:00 13.4 19 Este 31 Nordeste 0 -- -- 57
2021-02-21 05:00:00 12.3 21 Este 28 Este 0 -- -- 60
2021-02-21 04:00:00 10.5 14 Este 21 Este 0 -- -- 65
2021-02-21 03:00:00 13.3 8 Este 18 Nordeste 0 -- -- 57
2021-02-21 02:00:00 16.2 11 Nordeste 22 Nordeste 0 -- -- 45
2021-02-21 01:00:00 14.6 7 Nordeste 18 Nordeste 0 -- -- 48
2021-02-21 00:00:00 15.5 9 Nordeste 17 Nordeste 0 -- -- 46
2021-02-20 23:00:00 14.4 5 Este 18 Nordeste 0 -- -- 52
2021-02-20 22:00:00 15.7 6 Nordeste 13 Nordeste 0 -- -- 42
2021-02-20 21:00:00 12.2 9 Nordeste 14 Este 0 -- -- 63
2021-02-20 20:00:00 14 6 Norte 10 Norte 0 -- -- 48
2021-02-20 19:00:00 14.1 5 Norte 9 Norte 0 -- -- 51
2021-02-20 18:00:00 15.8 5 Noroeste 8 Noroeste 0 -- -- 47
2021-02-20 17:00:00 17.1 3 Norte 6 Norte 0 -- -- 41
2021-02-20 16:00:00 18.2 3 Nordeste 16 Este 0 -- -- 39
2021-02-20 15:00:00 17.6 8 Este 14 Sudeste 0 -- -- 44
2021-02-20 14:00:00 17.4 3 Nordeste 15 Este 0 -- -- 43
2021-02-20 13:00:00 16.9 5 Nordeste 13 Este 0 -- -- 48
2021-02-20 12:00:00 15.8 5 Nordeste 14 Este 0 -- -- 53
2021-02-20 11:00:00 15 7 Este 12 Este 0 -- -- 55
2021-02-20 10:00:00 10.3 4 Nordeste 8 Nordeste 0 -- -- 78
2021-02-20 09:00:00 7.3 3 Este 9 Este 0 -- -- 89
2021-02-20 08:00:00 4.8 0 Calma 9 Sudeste 0 -- -- 91
2021-02-20 07:00:00 4.9 3 Este 9 Sur 0 -- -- 90
2021-02-20 06:00:00 5.2 3 Nordeste 9 Nordeste 0 -- -- 91
2021-02-20 05:00:00 6.8 5 Nordeste 11 Nordeste 0 -- -- 83
2021-02-20 04:00:00 7 5 Este 14 Oeste 0 -- -- 81
2021-02-20 03:00:00 9.3 8 Norte 12 Norte 0 -- -- 75
2021-02-20 02:00:00 7.6 0 Calma 3 Sudoeste 0 -- -- 82
2021-02-20 01:00:00 7.3 0 Calma 7 Nordeste 0 -- -- 82
2021-02-20 00:00:00 8.4 3 Nordeste 13 Sur 0 -- -- 76
2021-02-19 23:00:00 9.2 5 Nordeste 11 Noroeste 0 -- -- 69
2021-02-19 22:00:00 11.1 8 Oeste 13 Noroeste 0 -- -- 56
2021-02-19 21:00:00 13.5 9 Noroeste 15 Oeste 0 -- -- 44
2021-02-19 20:00:00 15.2 13 Oeste 23 Oeste 0 -- -- 39
2021-02-19 19:00:00 14.8 11 Oeste 20 Oeste 0 -- -- 54
2021-02-19 18:00:00 16.6 12 Oeste 23 Sudoeste 0 -- -- 50
2021-02-19 17:00:00 18.6 13 Oeste 22 Oeste 0 -- -- 42
2021-02-19 16:00:00 19.3 9 Oeste 23 Oeste 0 -- -- 38
2021-02-19 15:00:00 19.9 6 Sudoeste 13 Oeste 0 -- -- 37
2021-02-19 14:00:00 18 4 Este 10 Este 0 -- -- 50
2021-02-19 13:00:00 16.2 6 Este 13 Este 0 -- -- 59
2021-02-19 12:00:00 14 8 Este 13 Este 0 -- -- 66
2021-02-19 11:00:00 13.7 2 Este 6 Este 0 -- -- 71
2021-02-19 10:00:00 8.9 4 Este 6 Este 0 -- -- 88
2021-02-19 09:00:00 5.6 2 Este 4 Este 0 -- -- 98
2021-02-19 08:00:00 4.4 2 Este 3 Noroeste 0 -- -- 98
2021-02-19 07:00:00 4.7 0 Calma 8 Este 0 -- -- 97
2021-02-19 06:00:00 5.4 5 Este 7 Este 0 -- -- 96
2021-02-19 05:00:00 7 3 Noroeste 5 Este 0 -- -- 95
2021-02-19 04:00:00 5.6 2 Este 8 Este 0 -- -- 96
2021-02-19 03:00:00 7.3 0 Calma 6 Oeste 0 -- -- 87
2021-02-19 02:00:00 6.7 3 Este 8 Este 0 -- -- 93
2021-02-19 01:00:00 7.6 5 Este 8 Este 0 -- -- 86
2021-02-19 00:00:00 8 7 Este 10 Este 0 -- -- 89
2021-02-18 23:00:00 9.8 4 Norte 10 Este 0 -- -- 83
2021-02-18 22:00:00 10.4 2 Norte 5 Norte 0 -- -- 74
2021-02-18 21:00:00 10.8 0 Calma 8 Oeste 0 -- -- 76
2021-02-18 20:00:00 12 4 Oeste 7 Noroeste 0 -- -- 71
2021-02-18 19:00:00 14.5 3 Oeste 12 Sudoeste 0 -- -- 61
2021-02-18 18:00:00 16.1 9 Oeste 17 Oeste 0 -- -- 57
2021-02-18 17:00:00 16.7 15 Sudoeste 27 Sudoeste 0 -- -- 53
2021-02-18 16:00:00 17.5 12 Sudoeste 27 Oeste 0 -- -- 52
2021-02-18 15:00:00 16.6 15 Sudoeste 23 Sudoeste 0 -- -- 56
2021-02-18 14:00:00 16.2 8 Sur 20 Sudoeste 0 -- -- 66
2021-02-18 13:00:00 14.8 10 Sudoeste 17 Sudoeste 0 -- -- 68
2021-02-18 12:00:00 12.9 6 Este 12 Este 0 -- -- 76
2021-02-18 11:00:00 11.3 0 Calma 5 Este 0 -- -- 81
2021-02-18 10:00:00 8.2 3 Este 5 Este 0 -- -- 94
2021-02-18 09:00:00 5 2 Este 4 Este 0 -- -- 98
2021-02-18 08:00:00 4.2 0 Calma 4 Nordeste 0 -- -- 98
2021-02-18 07:00:00 4.9 3 Nordeste 5 Este 0 -- -- 97
2021-02-18 06:00:00 5.5 0 Calma 2 Nordeste 0 -- -- 96
2021-02-18 05:00:00 5.3 0 Calma 5 Este 0 -- -- 96
2021-02-18 04:00:00 5.9 0 Calma 3 Este 0 -- -- 92
2021-02-18 03:00:00 6.3 0 Calma 5 Oeste 0 -- -- 91
2021-02-18 02:00:00 6.9 0 Calma 6 Este 0 -- -- 89
2021-02-18 01:00:00 7.5 6 Este 9 Este 0 -- -- 86
2021-02-18 00:00:00 8.5 0 Calma 7 Este 0 -- -- 87
2021-02-17 23:00:00 8.3 5 Nordeste 6 Este 0 -- -- 84
2021-02-17 22:00:00 11 2 Oeste 5 Este 0 -- -- 77
2021-02-17 21:00:00 9.8 0 Calma 5 Oeste 0 -- -- 80
2021-02-17 20:00:00 12.1 3 Nordeste 6 Nordeste 0 -- -- 76
2021-02-17 19:00:00 14.2 0 Calma 7 Sur 0 -- -- 70
2021-02-17 18:00:00 17.1 5 Oeste 8 Noroeste 0 -- -- 60
2021-02-17 17:00:00 19 0 Calma 6 Este 0 -- -- 55
2021-02-17 16:00:00 19.3 3 Este 10 Sudeste 0 -- -- 56
2021-02-17 15:00:00 18.5 5 Sudeste 12 Sudeste 0 -- -- 58
2021-02-17 14:00:00 17.3 6 Sudoeste 14 Sur 0 -- -- 61
2021-02-17 13:00:00 16.4 3 Sudeste 9 Sudeste 0 -- -- 66
2021-02-17 12:00:00 13.9 5 Este 9 Sudeste 0 -- -- 73
2021-02-17 11:00:00 11.8 5 Este 8 Este 0 -- -- 79
2021-02-17 10:00:00 11.1 3 Este 8 Este 0 -- -- 87
2021-02-17 09:00:00 7.4 3 Este 5 Este 0 -- -- 98
2021-02-17 08:00:00 5.6 2 Oeste 5 Nordeste 0 -- -- 99
2021-02-17 07:00:00 5.2 4 Nordeste 5 Nordeste 0 -- -- 99
2021-02-17 06:00:00 5.2 0 Calma 6 Sudoeste 0 -- -- 97
2021-02-17 05:00:00 6 0 Calma 7 Este 0 -- -- 98
2021-02-17 04:00:00 6.8 3 Este 5 Este 0 -- -- 95
2021-02-17 03:00:00 7.3 0 Calma 4 Norte 0 -- -- 93
2021-02-17 02:00:00 7.8 0 Calma 7 Este 0 -- -- 93
2021-02-17 01:00:00 7.8 3 Este 5 Sudeste 0 -- -- 92
2021-02-17 00:00:00 8.8 2 Oeste 7 Nordeste 0 -- -- 90
2021-02-16 23:00:00 8.5 4 Nordeste 6 Nordeste 0 -- -- 89
2021-02-16 22:00:00 10.3 3 Nordeste 8 Este 0 -- -- 83
2021-02-16 21:00:00 10.2 4 Nordeste 5 Norte 0 -- -- 80
2021-02-16 20:00:00 11.6 4 Norte 6 Oeste 0 -- -- 76
2021-02-16 19:00:00 13.8 4 Noroeste 10 Oeste 0 -- -- 67
2021-02-16 18:00:00 15.3 9 Sudoeste 19 Sudoeste 0 -- -- 62
2021-02-16 17:00:00 16.5 12 Sudoeste 21 Oeste 0 -- -- 57
2021-02-16 16:00:00 17.5 11 Sudoeste 19 Sudoeste 0 -- -- 52
2021-02-16 15:00:00 17 6 Oeste 14 Sur 0 -- -- 53
2021-02-16 14:00:00 16.2 3 Sudeste 12 Sudeste 0 -- -- 59
2021-02-16 13:00:00 15.3 5 Sudeste 9 Este 0 -- -- 63
2021-02-16 12:00:00 13.5 3 Nordeste 8 Este 0 -- -- 68
2021-02-16 11:00:00 12.5 3 Este 6 Sudeste 0 -- -- 74
2021-02-16 10:00:00 10.9 3 Sur 6 Noroeste 0 -- -- 79
2021-02-16 09:00:00 7 0 Calma 6 Este 0 -- -- 96
2021-02-16 08:00:00 5.2 3 Noroeste 4 Noroeste 0 -- -- 96
2021-02-16 07:00:00 5.6 3 Este 5 Este 0 -- -- 96
2021-02-16 06:00:00 6.4 0 Calma 3 Noroeste 0 -- -- 96
2021-02-16 05:00:00 6.2 0 Calma 3 Oeste 0 -- -- 93
2021-02-16 04:00:00 6.9 3 Noroeste 4 Noroeste 0 -- -- 90
2021-02-16 03:00:00 6.8 0 Calma 4 Este 0 -- -- 90
2021-02-16 02:00:00 8 0 Calma 7 Este 0 -- -- 87
2021-02-16 01:00:00 8.4 3 Nordeste 9 Este 0 -- -- 85
2021-02-16 00:00:00 9.1 4 Nordeste 9 Este 0 -- -- 83
2021-02-15 23:00:00 9.5 3 Nordeste 10 Este 0 -- -- 83
2021-02-15 22:00:00 10.4 0 Calma 5 Este 0 -- -- 78
2021-02-15 21:00:00 11.5 4 Norte 14 Nordeste 0 -- -- 73
2021-02-15 20:00:00 12.3 3 Nordeste 8 Nordeste 0 -- -- 75
2021-02-15 19:00:00 14 4 Este 14 Este 0 -- -- 70
2021-02-15 18:00:00 17.5 10 Este 22 Nordeste 0 -- -- 55
2021-02-15 17:00:00 18.3 10 Este 16 Este 0 -- -- 57
2021-02-15 16:00:00 17.9 9 Sudeste 22 Este 0 -- -- 58
2021-02-15 15:00:00 17.5 9 Este 24 Nordeste 0 -- -- 61
2021-02-15 14:00:00 16.1 15 Este 25 Este 0 -- -- 61
2021-02-15 13:00:00 15 15 Este 24 Este 0 -- -- 64
2021-02-15 12:00:00 13.8 16 Este 26 Este 0 -- -- 67
2021-02-15 11:00:00 12.9 13 Este 26 Nordeste 0 -- -- 73
2021-02-15 10:00:00 11.6 6 Este 11 Este 0 -- -- 75
2021-02-15 09:00:00 8.1 2 Norte 8 Norte 0 -- -- 87
2021-02-15 08:00:00 5.9 2 Norte 6 Noroeste 0 -- -- 89
2021-02-15 07:00:00 6.4 0 Calma 3 Oeste 0 -- -- 93
2021-02-15 06:00:00 7.2 2 Noroeste 7 Noroeste 0 -- -- 89
2021-02-15 05:00:00 6.8 4 Noroeste 8 Nordeste 0 -- -- 90
2021-02-15 04:00:00 7.3 6 Norte 11 Sur 0 -- -- 89
2021-02-15 03:00:00 7 4 Sudoeste 11 Sur 0 -- -- 91
2021-02-15 02:00:00 7.9 0 Calma 6 Este 0 -- -- 89
2021-02-15 01:00:00 8.4 4 Sudeste 6 Nordeste 0 -- -- 86
2021-02-15 00:00:00 9.3 2 Nordeste 5 Nordeste 0 -- -- 84
2021-02-14 23:00:00 9.6 2 Este 6 Este 0 -- -- 82
2021-02-14 22:00:00 11.3 4 Nordeste 8 Norte 0 -- -- 75
2021-02-14 21:00:00 12.8 2 Norte 12 Nordeste 0 -- -- 69
2021-02-14 20:00:00 13.7 4 Nordeste 9 Nordeste 0 -- -- 64
2021-02-14 19:00:00 15.3 3 Nordeste 13 Este 0 -- -- 61
2021-02-14 18:00:00 17.6 7 Este 18 Este 0 -- -- 55
2021-02-14 17:00:00 19.5 11 Sudeste 17 Sudeste 0 -- -- 47
2021-02-14 16:00:00 20.8 4 Este 12 Este 0 -- -- 47
2021-02-14 15:00:00 18.9 5 Sur 13 Sudeste 0 -- -- 51
2021-02-14 14:00:00 18.2 5 Sudeste 12 Este 0 -- -- 57
2021-02-14 13:00:00 16.5 4 Sur 9 Este 0 -- -- 62
2021-02-14 12:00:00 14.5 4 Este 8 Este 0 -- -- 68
2021-02-14 11:00:00 12.8 2 Nordeste 6 Nordeste 0 -- -- 74
2021-02-14 10:00:00 9.2 5 Nordeste 12 Este 0 -- -- 88
2021-02-14 09:00:00 6.9 0 Calma 4 Este 0 -- -- 99
2021-02-14 08:00:00 4.2 3 Este 5 Este 0 -- -- 100
2021-02-14 07:00:00 4.7 3 Noroeste 5 Noroeste 0 -- -- 98
2021-02-14 06:00:00 5.1 0 Calma 3 Este 0 -- -- 99
2021-02-14 05:00:00 5.2 3 Este 8 Este 0 -- -- 97
2021-02-14 04:00:00 7.2 6 Noroeste 9 Noroeste 0 -- -- 92
2021-02-14 03:00:00 5.7 4 Este 6 Este 0 -- -- 98
2021-02-14 02:00:00 6.5 4 Norte 8 Sudeste 0 -- -- 97
2021-02-14 01:00:00 6.4 3 Este 8 Nordeste 0 -- -- 97
2021-02-14 00:00:00 7.7 0 Calma 5 Sudeste 0 -- -- 91
2021-02-13 23:00:00 7.9 3 Sudeste 5 Sudeste 0 -- -- 92
2021-02-13 22:00:00 8.6 4 Este 9 Sudeste 0 -- -- 88
2021-02-13 21:00:00 9.6 3 Nordeste 7 Nordeste 0 -- -- 88
2021-02-13 20:00:00 11.1 6 Norte 10 Norte 0 -- -- 83
2021-02-13 19:00:00 13 4 Este 8 Sudeste 0 -- -- 76
2021-02-13 18:00:00 17.8 5 Sudeste 9 Este 0 -- -- 58
2021-02-13 17:00:00 19 2 Sudeste 9 Oeste 0 -- -- 54
2021-02-13 16:00:00 17.2 4 Este 13 Este 0 -- -- 59
2021-02-13 15:00:00 15.1 7 Sudeste 12 Este 0 -- -- 69
2021-02-13 14:00:00 14.7 6 Sudoeste 14 Sur 0 -- -- 68
2021-02-13 13:00:00 13.1 5 Sudoeste 12 Sudeste 0 -- -- 73
2021-02-13 08:00:00 -- -- -- -- -- -- -- -- --
2021-02-13 07:00:00 4.3 0 Calma 6 Este 0 -- -- 98
2021-02-13 06:00:00 4.7 3 Sudeste 5 Este 0 -- -- 97
2021-02-13 05:00:00 4.9 0 Calma 4 Este 0 -- -- 97
2021-02-13 04:00:00 5 3 Este 4 Este 0 -- -- 93
2021-02-13 03:00:00 6.6 3 Nordeste 10 Nordeste 0 -- -- 88
2021-02-13 02:00:00 5.8 4 Este 10 Este 0 -- -- 94
2021-02-13 01:00:00 6.3 6 Este 9 Sudeste 0 -- -- 90
2021-02-13 00:00:00 8.4 5 Norte 9 Norte 0 -- -- 82
2021-02-12 23:00:00 8.5 2 Sudeste 10 Nordeste 0 -- -- 82
2021-02-12 22:00:00 8.8 6 Nordeste 9 Nordeste 0 -- -- 79
2021-02-12 21:00:00 10.4 2 Este 18 Oeste 0 -- -- 73
2021-02-12 20:00:00 11.4 4 Norte 10 Nordeste 0 -- -- 72
2021-02-12 19:00:00 13.5 3 Norte 13 Oeste 0 -- -- 65
2021-02-12 18:00:00 17.1 12 Noroeste 30 Oeste 0 -- -- 46
2021-02-12 17:00:00 17.5 17 Oeste 28 Oeste 0 -- -- 48
2021-02-12 16:00:00 17.1 23 Oeste 38 Oeste 0 -- -- 46
2021-02-12 15:00:00 17.4 21 Oeste 46 Noroeste 0 -- -- 48
2021-02-12 14:00:00 17.1 20 Oeste 35 Sudoeste 0 -- -- 51
2021-02-12 13:00:00 16.7 16 Oeste 30 Oeste 0 -- -- 57
2021-02-12 12:00:00 15.6 19 Oeste 31 Oeste 0 -- -- 67
2021-02-12 11:00:00 13.5 8 Sudoeste 15 Sur 0 -- -- 85
2021-02-12 10:00:00 11.7 5 Este 24 Sudoeste 0 -- -- 92
2021-02-12 09:00:00 10.3 16 Sudoeste 29 Sudoeste 0 -- -- 98
2021-02-12 08:00:00 10 15 Sudoeste 30 Sur 0 -- -- 100
2021-02-12 07:00:00 10.9 14 Oeste 31 Oeste 0 -- -- 100
2021-02-12 06:00:00 11.4 19 Sudoeste 33 Oeste 0 -- -- 100
2021-02-12 05:00:00 11.9 11 Sudoeste 25 Sudoeste 1.4 -- -- 100
2021-02-12 04:00:00 12 7 Sudoeste 19 Sudoeste 2.6 -- -- 100
2021-02-12 03:00:00 12.2 9 Oeste 17 Sudoeste 3 -- -- 100
2021-02-12 02:00:00 12.2 4 Oeste 8 Sudoeste 0.6 -- -- 100
2021-02-12 01:00:00 12.2 4 Oeste 6 Oeste 0.2 -- -- 100
2021-02-12 00:00:00 12.1 3 Oeste 5 Oeste 0 -- -- 100
2021-02-11 23:00:00 12.3 2 Noroeste 5 Oeste 0 -- -- 100
2021-02-11 22:00:00 12.3 4 Noroeste 8 Noroeste 0 -- -- 100
2021-02-11 21:00:00 12.5 3 Sudoeste 5 Sur 0 -- -- 100
2021-02-11 20:00:00 12.7 3 Noroeste 5 Sudoeste 0.2 -- -- 100
2021-02-11 19:00:00 12.9 4 Oeste 8 Oeste 0 -- -- 100
2021-02-11 18:00:00 13.2 6 Oeste 12 Oeste 0.2 -- -- 99
2021-02-11 17:00:00 13.2 6 Oeste 10 Sudoeste 0 -- -- 98
2021-02-11 16:00:00 13.3 6 Oeste 13 Sudoeste 0 -- -- 99
2021-02-11 15:00:00 13.4 9 Sudoeste 17 Sudoeste 0.2 -- -- 99
2021-02-11 14:00:00 13.4 13 Sudoeste 22 Sudoeste 0 -- -- 100
2021-02-11 13:00:00 12.6 12 Sudoeste 18 Sudoeste 0.2 -- -- 100
2021-02-11 12:00:00 11.7 0 Calma 5 Este 0 -- -- 100
2021-02-11 11:00:00 10.5 2 Este 5 Noroeste 0.2 -- -- 100
2021-02-11 10:00:00 9.9 0 Calma 6 Este 0.6 -- -- 100
2021-02-11 09:00:00 9.6 3 Sudeste 6 Este 1 -- -- 100
2021-02-11 08:00:00 9.2 2 Este 7 Este 0.8 -- -- 100
2021-02-11 07:00:00 9.5 4 Este 6 Nordeste 0.2 -- -- 100
2021-02-11 06:00:00 9.3 3 Nordeste 4 Este 0.2 -- -- 99
2021-02-11 05:00:00 9.2 0 Calma 5 Este 0 -- -- 97
2021-02-11 04:00:00 9.8 2 Sudoeste 5 Sudoeste 0 -- -- 93
2021-02-11 03:00:00 9.7 3 Nordeste 6 Sudeste 0 -- -- 92
2021-02-11 02:00:00 9.8 0 Calma 5 Norte 0 -- -- 91
2021-02-11 01:00:00 9.5 3 Norte 5 Norte 0 -- -- 90
2021-02-11 00:00:00 9.4 3 Nordeste 9 Este 0 -- -- 88
2021-02-10 23:00:00 9.6 5 Este 6 Este 0 -- -- 86
2021-02-10 22:00:00 10.6 0 Calma 5 Norte 0 -- -- 81
2021-02-10 21:00:00 10.4 2 Sudeste 6 Sur 0 -- -- 78
2021-02-10 20:00:00 11.6 0 Calma 9 Oeste 0 -- -- 74
2021-02-10 19:00:00 12.3 3 Noroeste 26 Sudoeste 0 -- -- 70
2021-02-10 18:00:00 14 14 Sudoeste 31 Sudoeste 0 -- -- 62
2021-02-10 17:00:00 15.9 18 Sudoeste 33 Sudoeste 0 -- -- 57
2021-02-10 16:00:00 16.7 15 Sudoeste 27 Sudoeste 0 -- -- 56
2021-02-10 15:00:00 16 15 Sudoeste 30 Sur 0 -- -- 56
2021-02-10 14:00:00 15.2 14 Sur 26 Sur 0 -- -- 60
2021-02-10 13:00:00 15.5 3 Sudeste 15 Sur 0 -- -- 61
2021-02-10 12:00:00 12.8 9 Nordeste 19 Nordeste 0 -- -- 73
2021-02-10 11:00:00 13.5 6 Sur 27 Sudoeste 0 -- -- 71
2021-02-10 10:00:00 10.9 18 Sudoeste 39 Sudoeste 0 -- -- 80
2021-02-10 09:00:00 8.7 31 Sudoeste 41 Sudoeste 0 -- -- 91
2021-02-10 08:00:00 8.6 10 Sudoeste 27 Sudoeste 0 -- -- 91
2021-02-10 07:00:00 9.1 18 Sudoeste 47 Sudoeste 0.2 -- -- 94
2021-02-10 06:00:00 9.1 22 Sudoeste 48 Sudoeste 0 -- -- 98
2021-02-10 05:00:00 9.1 28 Sudoeste 60 Sudoeste 1.6 -- -- 99
2021-02-10 04:00:00 8.6 23 Sudoeste 37 Sudoeste 3.6 -- -- 100
2021-02-10 03:00:00 8.8 13 Sudoeste 28 Sudoeste 0.4 -- -- 99
2021-02-10 02:00:00 8.6 12 Sudoeste 36 Sudoeste 2.2 -- -- 99
2021-02-10 01:00:00 8.7 14 Sudoeste 28 Sudoeste 0.6 -- -- 96
2021-02-10 00:00:00 8.8 10 Sudoeste 29 Sudoeste 0.8 -- -- 96
2021-02-09 23:00:00 9.1 13 Sudoeste 31 Sudoeste 0.4 -- -- 94
2021-02-09 22:00:00 9.5 13 Sudoeste 31 Sudoeste 0 -- -- 91
2021-02-09 21:00:00 9.3 14 Sudoeste 37 Sudoeste 0 -- -- 95
2021-02-09 20:00:00 10 16 Sudoeste 35 Sudoeste 1.2 -- -- 95
2021-02-09 19:00:00 10.4 15 Sudoeste 32 Oeste 0 -- -- 90
2021-02-09 18:00:00 10.8 21 Sudoeste 33 Sur 0 -- -- 90
2021-02-09 17:00:00 11 18 Sudoeste 38 Sudoeste 0 -- -- 90
2021-02-09 16:00:00 11.3 27 Sudoeste 42 Sudoeste 0.2 -- -- 91
2021-02-09 15:00:00 10 26 Sudoeste 48 Sudoeste 0.8 -- -- 99
2021-02-09 14:00:00 10.2 28 Sudoeste 51 Sudoeste 7 -- -- 100
2021-02-09 13:00:00 9.6 13 Oeste 22 Oeste 12.4 -- -- 100
2021-02-09 12:00:00 9.1 2 Noroeste 14 Noroeste 9.2 -- -- 100
2021-02-09 11:00:00 9 7 Oeste 12 Oeste 6.4 -- -- 100
2021-02-09 10:00:00 8.9 6 Sudoeste 20 Sudoeste 4.2 -- -- 100
2021-02-09 09:00:00 8.9 6 Sudoeste 18 Sudoeste 3.8 -- -- 100
2021-02-09 08:00:00 8.7 4 Sudoeste 10 Sudoeste 1 -- -- 100
2021-02-09 07:00:00 8.4 2 Oeste 7 Oeste 1.6 -- -- 100
2021-02-09 06:00:00 8.2 0 Calma 12 Noroeste 3 -- -- 99
2021-02-09 05:00:00 8.2 4 Noroeste 16 Oeste 1.6 -- -- 98
2021-02-09 04:00:00 7.8 7 Noroeste 11 Noroeste 2.6 -- -- 99
2021-02-09 03:00:00 7.8 8 Oeste 17 Sudoeste 0.6 -- -- 95
2021-02-09 02:00:00 8.6 16 Sudoeste 26 Sudoeste 0 -- -- 85
2021-02-09 01:00:00 8.8 12 Sudoeste 28 Sudoeste 0 -- -- 82
2021-02-09 00:00:00 8.6 10 Noroeste 26 Noroeste 0 -- -- 83
2021-02-08 23:00:00 8.5 10 Oeste 23 Oeste 0 -- -- 83
2021-02-08 22:00:00 9.1 12 Sudoeste 35 Sudoeste 0 -- -- 79
2021-02-08 21:00:00 10 18 Sudoeste 56 Sudoeste 0 -- -- 73
2021-02-08 20:00:00 10.6 27 Sudoeste 47 Sudoeste 0 -- -- 69
2021-02-08 19:00:00 10.4 14 Sudoeste 48 Sudoeste 0 -- -- 75
2021-02-08 18:00:00 11.2 24 Sudoeste 48 Sudoeste 0 -- -- 74
2021-02-08 17:00:00 12.8 24 Sudoeste 46 Sudoeste 0 -- -- 74
2021-02-08 16:00:00 13 26 Sudoeste 46 Sudoeste 0 -- -- 64
2021-02-08 15:00:00 12.8 30 Sudoeste 51 Sudoeste 0 -- -- 69
2021-02-08 14:00:00 13.2 30 Sudoeste 46 Sur 0 -- -- 68
2021-02-08 13:00:00 12.4 17 Sudoeste 37 Sudoeste 0 -- -- 80
2021-02-08 12:00:00 10.3 21 Sudoeste 39 Sudoeste 0 -- -- 91
2021-02-08 11:00:00 8.6 18 Sudoeste 33 Sudoeste 0 -- -- 97
2021-02-08 10:00:00 9 22 Sudoeste 40 Sudoeste 0 -- -- 98
2021-02-08 09:00:00 8.2 18 Sudoeste 32 Sur 0 -- -- 100
2021-02-08 08:00:00 7.9 10 Oeste 19 Oeste 0 -- -- 100
2021-02-08 07:00:00 7.3 2 Noroeste 9 Oeste 0 -- -- 100
2021-02-08 06:00:00 7.2 3 Oeste 8 Este 0 -- -- 100
2021-02-08 05:00:00 7 9 Este 18 Este 5.6 -- -- 100
2021-02-08 04:00:00 7.3 6 Nordeste 12 Este 4.4 -- -- 100
2021-02-08 03:00:00 7.4 7 Nordeste 10 Este 5.2 -- -- 100
2021-02-08 02:00:00 7.4 4 Nordeste 7 Noroeste 5.8 -- -- 100
2021-02-08 01:00:00 7.5 3 Oeste 6 Oeste 4.6 -- -- 100
2021-02-08 00:00:00 7.3 4 Noroeste 9 Oeste 3.4 -- -- 99
2021-02-07 23:00:00 7 7 Oeste 11 Oeste 0.4 -- -- 97
2021-02-07 22:00:00 7.4 6 Noroeste 13 Oeste 0 -- -- 94
2021-02-07 21:00:00 7.5 3 Sur 8 Sudoeste 0 -- -- 92
2021-02-07 20:00:00 7.3 5 Sudoeste 23 Sudoeste 0 -- -- 91
2021-02-07 19:00:00 6.9 12 Sudoeste 28 Sudoeste 0.2 -- -- 91
2021-02-07 18:00:00 7.9 18 Sudoeste 36 Sudoeste 0.2 -- -- 90
2021-02-07 17:00:00 9.2 22 Sudoeste 36 Sudoeste 0 -- -- 80
2021-02-07 16:00:00 11.1 19 Sudoeste 35 Sudoeste 0 -- -- 71
2021-02-07 15:00:00 10.7 5 Noroeste 14 Oeste 0 -- -- 78
2021-02-07 14:00:00 11.4 5 Sudoeste 10 Sur 0 -- -- 77
2021-02-07 13:00:00 10 3 Sudoeste 13 Sudeste 0 -- -- 80
2021-02-07 12:00:00 10 5 Sudeste 11 Sudoeste 0 -- -- 81
2021-02-07 11:00:00 8.5 6 Sudoeste 10 Sudoeste 0 -- -- 97
2021-02-07 10:00:00 7.2 3 Sudoeste 7 Sudoeste 0 -- -- 100
2021-02-07 09:00:00 7.5 5 Sudoeste 7 Oeste 0 -- -- 100
2021-02-07 08:00:00 7.7 4 Sudoeste 8 Sudoeste 0 -- -- 100
2021-02-07 07:00:00 7.5 4 Sudoeste 6 Sudoeste 0 -- -- 100
2021-02-07 06:00:00 7.9 4 Oeste 6 Noroeste 0 -- -- 100
2021-02-07 05:00:00 8.4 2 Oeste 6 Sudoeste 0 -- -- 100
2021-02-07 04:00:00 8.4 0 Calma 5 Sudoeste 0 -- -- 100
2021-02-07 03:00:00 8.6 0 Calma 4 Sudeste 0 -- -- 100
2021-02-07 02:00:00 8.4 0 Calma 6 Este 0 -- -- 100
2021-02-07 01:00:00 9.1 3 Nordeste -- -- 0 -- -- 100
2021-02-07 00:00:00 9.1 0 Calma 3 Este 0 -- -- 100
2021-02-06 23:00:00 9 0 Calma 0 Calma 0 -- -- 100
2021-02-06 22:00:00 8.2 0 Calma 6 Norte 0 -- -- 100
2021-02-06 21:00:00 8.8 4 Norte 7 Nordeste 0 -- -- 99
2021-02-06 20:00:00 10.2 2 Nordeste 5 Sudeste 0.2 -- -- 97
2021-02-06 19:00:00 10.9 2 Nordeste 4 Nordeste 0.2 -- -- 93
2021-02-06 18:00:00 11.5 2 Sudoeste 12 Oeste 0.6 -- -- 87
2021-02-06 17:00:00 12.5 6 Oeste 10 Oeste 0 -- -- 82
2021-02-06 16:00:00 12.8 0 Calma 9 Noroeste 0 -- -- 79
2021-02-06 15:00:00 12.5 5 Oeste 11 Noroeste 0 -- -- 85
2021-02-06 14:00:00 11.7 7 Noroeste 14 Oeste 5.4 -- -- 92
2021-02-06 13:00:00 11.3 9 Sudoeste 17 Sudoeste 1.4 -- -- 87
2021-02-06 12:00:00 11.6 8 Sur 15 Sur 0 -- -- 89
2021-02-06 11:00:00 11.2 3 Este 6 Este 0 -- -- 94
2021-02-06 10:00:00 9.7 0 Calma 3 Este 0 -- -- 98
2021-02-06 09:00:00 8.8 3 Norte 14 Oeste 0.6 -- -- 99
2021-02-06 08:00:00 8.8 2 Sudoeste 9 Oeste 1.4 -- -- 99
2021-02-06 07:00:00 9.1 5 Norte 9 Norte 0.8 -- -- 99
2021-02-06 06:00:00 9.3 8 Nordeste 13 Nordeste 2 -- -- 100
2021-02-06 05:00:00 9.2 8 Nordeste 13 Nordeste 1.4 -- -- 100
2021-02-06 04:00:00 8.8 2 Norte 8 Oeste 1.8 -- -- 100
2021-02-06 03:00:00 8.5 6 Oeste 11 Oeste 1.6 -- -- 99
2021-02-06 02:00:00 9.3 0 Calma 5 Este 2.4 -- -- 99
2021-02-06 01:00:00 9.6 5 Norte 15 Oeste 2.8 -- -- 99
2021-02-06 00:00:00 9.7 3 Este 6 Sudeste 1.8 -- -- 98
2021-02-05 23:00:00 10.2 2 Norte 14 Oeste 0.4 -- -- 93
2021-02-05 22:00:00 11.4 9 Norte 15 Norte 0 -- -- 85
2021-02-05 21:00:00 9.9 6 Oeste 25 Sur 1.4 -- -- 98
2021-02-05 20:00:00 10.7 11 Sudoeste 19 Sudoeste 0 -- -- 96
2021-02-05 19:00:00 11.1 3 Oeste 9 Oeste 0 -- -- 93
2021-02-05 18:00:00 11.9 6 Oeste 10 Oeste 0 -- -- 88
2021-02-05 17:00:00 12.9 6 Sudoeste 12 Sur 0 -- -- 82
2021-02-05 16:00:00 13.9 3 Noroeste 10 Sur 0 -- -- 82
2021-02-05 15:00:00 14.6 5 Sudeste 8 Sur 0 -- -- 77
2021-02-05 14:00:00 14.5 6 Sudeste 10 Sur 0 -- -- 79
2021-02-05 13:00:00 13.8 4 Sudeste 9 Este 0 -- -- 83
2021-02-05 12:00:00 13.6 4 Sudeste 10 Sur 0 -- -- 88
2021-02-05 11:00:00 12.7 3 Este 17 Este 0 -- -- 90
2021-02-05 10:00:00 11.8 9 Este 18 Este 0.2 -- -- 95
2021-02-05 09:00:00 10.2 4 Este 21 Sudoeste 0 -- -- 100
2021-02-05 08:00:00 10.1 9 Oeste 12 Oeste 0 -- -- 99
2021-02-05 07:00:00 10.3 3 Sur 14 Sudoeste 0.2 -- -- 98
2021-02-05 06:00:00 10.7 8 Sudoeste 13 Sudoeste 0.4 -- -- 97
2021-02-05 05:00:00 10.6 6 Este 16 Noroeste 0 -- -- 94
2021-02-05 04:00:00 10.7 9 Noroeste 18 Sur 0.8 -- -- 96
2021-02-05 03:00:00 10.7 3 Oeste 14 Norte 0 -- -- 95
2021-02-05 02:00:00 10.1 4 Sudeste 12 Sudeste 0 -- -- 99
2021-02-05 01:00:00 10.3 5 Sudoeste 10 Sur 0 -- -- 99
2021-02-05 00:00:00 10.4 0 Calma 10 Este 0 -- -- 99
2021-02-04 23:00:00 10.3 5 Este 8 Este 0 -- -- 100
2021-02-04 22:00:00 10.3 3 Sur 4 Sur 0 -- -- 99
2021-02-04 21:00:00 10.8 3 Este 6 Sudeste 0 -- -- 98
2021-02-04 20:00:00 11 6 Norte 11 Norte 0.4 -- -- 99
2021-02-04 19:00:00 11 4 Norte 10 Oeste 0.4 -- -- 98
2021-02-04 18:00:00 10.9 3 Noroeste 5 Norte 0.8 -- -- 96
2021-02-04 17:00:00 11.3 2 Norte 12 Norte 0.8 -- -- 90
2021-02-04 16:00:00 13.1 4 Este 15 Nordeste 0 -- -- 79
2021-02-04 15:00:00 13.1 8 Nordeste 20 Este 0 -- -- 83
2021-02-04 14:00:00 12.2 14 Este 20 Este 0 -- -- 88
2021-02-04 13:00:00 12.1 10 Este 22 Este 0 -- -- 91
2021-02-04 12:00:00 11.3 10 Este 21 Este 0 -- -- 98
2021-02-04 11:00:00 10.4 12 Este 22 Este 0 -- -- 100
2021-02-04 10:00:00 10.5 6 Este 11 Nordeste 0 -- -- 100
2021-02-04 09:00:00 9.8 7 Nordeste 11 Nordeste 0 -- -- 100
2021-02-04 08:00:00 9.7 3 Este 6 Nordeste 0 -- -- 100
2021-02-04 07:00:00 9.9 4 Nordeste 8 Este 0 -- -- 100
2021-02-04 06:00:00 10.1 4 Este 6 Este 0 -- -- 100
2021-02-04 05:00:00 10.1 2 Norte 4 Norte 0.2 -- -- 100
2021-02-04 04:00:00 10.4 3 Noroeste 4 Noroeste 0 -- -- 100
2021-02-04 03:00:00 10.4 0 Calma 3 Sudoeste 0.2 -- -- 100
2021-02-04 02:00:00 10.5 0 Calma 6 Oeste 0.2 -- -- 100
2021-02-04 01:00:00 10.7 2 Oeste 6 Noroeste 0.2 -- -- 100
2021-02-04 00:00:00 10.7 3 Sudoeste 6 Oeste 0.2 -- -- 100